createdAt,value
2018-06-15T00:01:21.423Z,16.60
2018-06-15T00:03:50.315Z,16.50
2018-06-15T00:06:19.165Z,16.50
2018-06-15T00:08:48.030Z,16.50
2018-06-15T00:11:16.940Z,16.50
2018-06-15T00:13:45.841Z,16.50
2018-06-15T00:16:14.668Z,16.50
2018-06-15T00:18:43.600Z,16.50
2018-06-15T00:21:12.540Z,16.60
2018-06-15T00:23:41.796Z,16.60
2018-06-15T00:26:10.693Z,16.60
2018-06-15T00:28:39.566Z,16.50
2018-06-15T00:31:08.436Z,16.50
2018-06-15T00:33:37.363Z,16.50
2018-06-15T00:36:06.228Z,16.50
2018-06-15T00:38:35.335Z,16.50
2018-06-15T00:41:04.272Z,16.50
2018-06-15T00:43:33.156Z,16.60
2018-06-15T00:46:02.290Z,16.50
2018-06-15T00:50:59.934Z,16.50
2018-06-15T00:53:29.553Z,16.50
2018-06-15T00:55:58.472Z,16.50
2018-06-15T00:58:27.355Z,16.50
2018-06-15T01:00:56.271Z,16.50
2018-06-15T01:03:25.150Z,16.50
2018-06-15T01:05:54.084Z,16.50
2018-06-15T01:08:23.193Z,16.50
2018-06-15T01:10:52.080Z,16.50
2018-06-15T01:13:20.984Z,16.50
2018-06-15T01:15:49.901Z,16.50
2018-06-15T01:18:18.796Z,16.50
2018-06-15T01:20:47.707Z,16.50
2018-06-15T01:23:16.614Z,16.50
2018-06-15T01:25:45.508Z,16.40
2018-06-15T01:28:14.377Z,16.40
2018-06-15T01:30:43.268Z,16.40
2018-06-15T01:33:12.158Z,16.40
2018-06-15T01:35:41.060Z,16.50
2018-06-15T01:38:09.931Z,16.50
2018-06-15T01:40:38.897Z,16.40
2018-06-15T01:43:07.787Z,16.40
2018-06-15T01:45:36.720Z,16.40
2018-06-15T01:48:05.715Z,16.40
2018-06-15T01:50:34.636Z,16.40
2018-06-15T01:53:03.544Z,16.40
2018-06-15T01:55:32.436Z,16.40
2018-06-15T01:58:01.336Z,16.40
2018-06-15T02:00:30.238Z,16.40
2018-06-15T02:02:59.148Z,16.40
2018-06-15T02:05:28.029Z,16.30
2018-06-15T02:07:56.922Z,16.30
2018-06-15T02:10:25.787Z,16.30
2018-06-15T02:12:54.965Z,16.30
2018-06-15T02:15:23.875Z,16.30
2018-06-15T02:17:52.857Z,16.30
2018-06-15T02:20:21.795Z,16.30
2018-06-15T02:22:50.722Z,16.20
2018-06-15T02:25:19.725Z,16.20
2018-06-15T02:27:48.620Z,16.20
2018-06-15T02:30:17.696Z,16.20
2018-06-15T02:32:46.574Z,16.20
2018-06-15T02:35:15.468Z,16.10
2018-06-15T02:37:44.402Z,16.10
2018-06-15T02:40:13.321Z,16.00
2018-06-15T02:42:45.271Z,16.00
2018-06-15T02:45:14.207Z,15.90
2018-06-15T02:47:43.120Z,15.90
2018-06-15T02:50:12.055Z,15.80
2018-06-15T02:52:40.960Z,15.70
2018-06-15T02:55:09.872Z,15.60
2018-06-15T02:57:38.804Z,15.60
2018-06-15T03:00:07.740Z,15.50
2018-06-15T03:02:36.677Z,15.40
2018-06-15T03:05:05.689Z,15.40
2018-06-15T03:07:34.625Z,15.30
2018-06-15T03:10:03.581Z,15.20
2018-06-15T03:12:32.556Z,15.20
2018-06-15T03:15:01.453Z,15.10
2018-06-15T03:17:30.406Z,15.00
2018-06-15T03:19:59.325Z,14.90
2018-06-15T03:22:28.278Z,14.80
2018-06-15T03:24:57.191Z,14.70
2018-06-15T03:27:26.108Z,14.70
2018-06-15T03:29:55.023Z,14.70
2018-06-15T03:32:23.944Z,14.60
2018-06-15T03:34:52.848Z,14.60
2018-06-15T03:37:21.777Z,14.50
2018-06-15T03:39:50.729Z,14.50
2018-06-15T03:42:19.642Z,14.40
2018-06-15T03:44:48.575Z,14.40
2018-06-15T03:47:17.500Z,14.40
2018-06-15T03:49:46.424Z,14.30
2018-06-15T03:52:15.360Z,14.30
2018-06-15T03:54:44.301Z,14.30
2018-06-15T03:57:13.227Z,14.30
2018-06-15T03:59:42.224Z,14.30
2018-06-15T04:02:11.136Z,14.30
2018-06-15T04:04:40.053Z,14.30
2018-06-15T04:07:08.979Z,14.30
2018-06-15T04:09:38.005Z,14.30
2018-06-15T04:12:06.945Z,14.30
2018-06-15T04:14:35.881Z,14.30
2018-06-15T04:17:04.848Z,14.30
2018-06-15T04:19:33.792Z,14.40
2018-06-15T04:22:02.876Z,14.40
2018-06-15T04:24:31.833Z,14.40
2018-06-15T04:27:00.767Z,14.50
2018-06-15T04:29:29.693Z,14.60
2018-06-15T04:31:58.601Z,14.60
2018-06-15T04:34:27.737Z,14.70
2018-06-15T04:36:56.629Z,14.70
2018-06-15T04:39:25.536Z,14.80
2018-06-15T04:41:54.492Z,15.00
2018-06-15T04:44:23.701Z,15.10
2018-06-15T04:46:52.613Z,15.20
2018-06-15T04:49:21.536Z,15.20
2018-06-15T04:51:50.444Z,15.30
2018-06-15T04:54:19.385Z,15.30
2018-06-15T04:56:48.309Z,15.40
2018-06-15T04:59:17.466Z,15.40
2018-06-15T05:01:46.405Z,15.50
2018-06-15T05:04:15.398Z,15.60
2018-06-15T05:06:44.469Z,15.60
2018-06-15T05:09:13.714Z,15.60
2018-06-15T05:11:42.640Z,15.70
2018-06-15T05:14:11.681Z,15.70
2018-06-15T05:16:40.584Z,15.80
2018-06-15T05:19:09.524Z,15.90
2018-06-15T05:21:38.455Z,16.00
2018-06-15T05:24:07.396Z,16.10
2018-06-15T05:26:36.305Z,16.30
2018-06-15T05:29:05.294Z,16.40
2018-06-15T05:31:34.224Z,16.50
2018-06-15T05:34:03.188Z,16.60
2018-06-15T05:36:32.131Z,16.70
2018-06-15T05:39:01.013Z,16.80
2018-06-15T05:43:58.516Z,16.80
2018-06-15T05:46:27.483Z,16.90
2018-06-15T05:48:56.380Z,17.20
2018-06-15T05:51:25.329Z,17.50
2018-06-15T05:53:54.260Z,17.70
2018-06-15T05:58:52.088Z,18.00
2018-06-15T06:01:21.055Z,18.20
2018-06-15T06:03:50.071Z,18.50
2018-06-15T06:06:18.966Z,18.80
2018-06-15T06:08:47.944Z,18.90
2018-06-15T06:11:16.884Z,18.90
2018-06-15T06:13:45.828Z,18.90
2018-06-15T06:16:14.738Z,19.00
2018-06-15T06:18:43.689Z,19.20
2018-06-15T06:21:12.653Z,19.30
2018-06-15T06:23:41.644Z,19.40
2018-06-15T06:26:10.844Z,19.30
2018-06-15T06:28:39.779Z,19.30
2018-06-15T06:31:08.833Z,19.10
2018-06-15T06:33:37.813Z,19.10
2018-06-15T06:36:06.783Z,19.10
2018-06-15T06:38:35.670Z,19.20
2018-06-15T06:41:04.632Z,19.60
2018-06-15T06:43:33.608Z,19.80
2018-06-15T06:46:02.544Z,20.30
2018-06-15T06:48:31.470Z,20.80
2018-06-15T06:51:00.404Z,21.40
2018-06-15T06:53:29.437Z,21.90
2018-06-15T06:55:58.356Z,22.20
2018-06-15T06:58:27.299Z,22.20
2018-06-15T07:00:56.245Z,22.30
2018-06-15T07:03:27.166Z,22.00
2018-06-15T07:05:56.096Z,21.70
2018-06-15T07:13:22.237Z,21.70
2018-06-15T07:15:51.163Z,21.70
2018-06-15T07:18:20.087Z,21.80
2018-06-15T07:20:49.054Z,22.20
2018-06-15T07:23:17.992Z,22.70
2018-06-15T07:25:46.938Z,22.80
2018-06-15T07:28:15.871Z,22.90
2018-06-15T07:30:44.806Z,22.80
2018-06-15T07:33:13.762Z,22.80
2018-06-15T07:35:42.910Z,22.80
2018-06-15T07:38:11.862Z,22.80
2018-06-15T07:40:40.789Z,23.00
2018-06-15T07:43:09.747Z,23.40
2018-06-15T07:45:38.727Z,23.70
2018-06-15T07:48:07.693Z,23.80
2018-06-15T07:50:36.754Z,23.70
2018-06-15T07:53:05.646Z,24.00
2018-06-15T07:55:34.570Z,24.10
2018-06-15T07:58:03.690Z,24.00
2018-06-15T08:00:32.634Z,24.00
2018-06-15T08:03:01.549Z,24.10
2018-06-15T08:05:30.490Z,24.30
2018-06-15T08:07:59.400Z,24.70
2018-06-15T08:10:28.344Z,24.60
2018-06-15T08:12:57.274Z,24.60
2018-06-15T08:15:26.193Z,24.70
2018-06-15T08:17:55.141Z,24.40
2018-06-15T08:20:24.119Z,24.20
2018-06-15T08:22:53.296Z,24.30
2018-06-15T08:25:22.225Z,24.40
2018-06-15T08:27:51.153Z,24.30
2018-06-15T08:30:20.177Z,24.10
2018-06-15T08:32:49.131Z,24.20
2018-06-15T08:35:18.084Z,24.20
2018-06-15T08:37:47.032Z,24.20
2018-06-15T08:40:16.090Z,24.20
2018-06-15T08:42:45.045Z,24.00
2018-06-15T08:45:14.018Z,24.10
2018-06-15T08:47:42.959Z,24.50
2018-06-15T08:50:11.856Z,25.10
2018-06-15T08:52:40.791Z,25.60
2018-06-15T08:55:09.692Z,26.10
2018-06-15T08:57:39.627Z,26.40
2018-06-15T09:00:08.661Z,26.40
2018-06-15T09:02:37.548Z,26.20
2018-06-15T09:05:06.451Z,26.20
2018-06-15T09:07:35.405Z,25.90
2018-06-15T09:10:04.329Z,25.50
2018-06-15T09:12:33.270Z,25.20
2018-06-15T09:15:02.232Z,24.80
2018-06-15T09:17:31.137Z,24.70
2018-06-15T09:20:01.061Z,24.70
2018-06-15T09:22:30.047Z,25.00
2018-06-15T09:24:58.969Z,25.40
2018-06-15T09:27:27.894Z,25.80
2018-06-15T09:29:57.072Z,25.30
2018-06-15T09:32:26.293Z,25.10
2018-06-15T09:34:55.204Z,25.80
2018-06-15T09:37:24.149Z,26.00
2018-06-15T09:39:53.359Z,26.50
2018-06-15T09:42:22.539Z,26.80
2018-06-15T09:44:51.766Z,27.00
2018-06-15T09:47:20.939Z,27.30
2018-06-15T09:49:50.168Z,27.70
2018-06-15T09:52:19.331Z,27.80
2018-06-15T09:54:48.568Z,27.40
2018-06-15T09:57:17.675Z,27.20
2018-06-15T09:59:46.640Z,27.10
2018-06-15T10:02:15.763Z,27.40
2018-06-15T10:04:44.817Z,27.70
2018-06-15T10:07:13.990Z,28.10
2018-06-15T10:09:43.027Z,28.20
2018-06-15T10:12:15.351Z,28.50
2018-06-15T10:14:44.260Z,28.70
2018-06-15T10:17:13.205Z,28.70
2018-06-15T10:19:42.221Z,28.20
2018-06-15T10:22:11.229Z,27.50
2018-06-15T10:24:40.179Z,27.30
2018-06-15T10:27:09.703Z,27.40
2018-06-15T10:29:38.914Z,27.90
2018-06-15T10:32:07.884Z,28.20
2018-06-15T10:37:12.044Z,28.30
2018-06-15T11:03:28.914Z,27.30
2018-06-15T11:05:57.859Z,27.10
2018-06-15T11:08:26.823Z,27.00
2018-06-15T11:10:55.772Z,27.40
2018-06-15T11:13:24.689Z,27.80
2018-06-15T11:15:53.580Z,28.20
2018-06-15T11:18:22.482Z,28.20
2018-06-15T11:20:51.630Z,28.40
2018-06-15T11:23:20.854Z,28.50
2018-06-15T11:25:49.763Z,28.60
2018-06-15T11:28:19.306Z,28.20
2018-06-15T11:30:48.404Z,27.80
2018-06-15T11:33:17.320Z,27.80
2018-06-15T11:35:46.285Z,28.00
2018-06-15T11:38:15.275Z,27.70
2018-06-15T11:40:44.217Z,27.50
2018-06-15T11:43:13.174Z,27.20
2018-06-15T11:45:42.079Z,27.20
2018-06-15T11:48:10.988Z,27.10
2018-06-15T11:50:39.885Z,26.60
2018-06-15T11:53:08.803Z,26.40
2018-06-15T11:55:37.725Z,26.50
2018-06-15T11:58:06.690Z,26.50
2018-06-15T12:00:35.624Z,26.80
2018-06-15T12:03:04.592Z,27.00
2018-06-15T12:05:33.758Z,27.30
2018-06-15T12:08:02.700Z,27.10
2018-06-15T12:10:31.628Z,27.30
2018-06-15T12:13:00.545Z,27.30
2018-06-15T12:15:29.469Z,27.50
2018-06-15T12:17:58.373Z,27.90
2018-06-15T12:20:27.272Z,27.90
2018-06-15T12:22:56.329Z,27.90
2018-06-15T12:25:25.240Z,27.60
2018-06-15T12:27:54.175Z,27.30
2018-06-15T12:30:23.141Z,27.00
2018-06-15T12:32:52.066Z,26.90
2018-06-15T12:35:21.104Z,26.60
2018-06-15T12:37:50.033Z,26.70
2018-06-15T12:40:18.924Z,26.90
2018-06-15T12:42:47.876Z,27.20
2018-06-15T12:45:16.803Z,27.50
2018-06-15T12:47:45.810Z,27.80
2018-06-15T12:50:14.724Z,28.20
2018-06-15T12:52:43.634Z,28.20
2018-06-15T12:55:12.569Z,27.90
2018-06-15T12:57:41.533Z,27.60
2018-06-15T13:00:10.450Z,27.30
2018-06-15T13:02:39.341Z,27.00
2018-06-15T13:05:08.294Z,26.90
2018-06-15T13:07:37.210Z,27.00
2018-06-15T13:10:06.138Z,26.90
2018-06-15T13:12:35.054Z,26.90
2018-06-15T13:15:04.196Z,27.00
2018-06-15T13:17:33.084Z,26.90
2018-06-15T13:20:02.034Z,27.00
2018-06-15T13:22:30.969Z,27.30
2018-06-15T13:24:59.876Z,27.30
2018-06-15T13:27:28.805Z,27.50
2018-06-15T13:29:57.728Z,28.00
2018-06-15T13:32:26.674Z,28.10
2018-06-15T13:34:55.745Z,28.20
2018-06-15T13:37:24.658Z,28.30
2018-06-15T13:39:53.568Z,28.10
2018-06-15T13:42:22.517Z,28.00
2018-06-15T13:44:51.411Z,27.60
2018-06-15T13:47:20.346Z,27.30
2018-06-15T13:49:49.423Z,27.20
2018-06-15T13:52:18.326Z,27.30
2018-06-15T13:54:47.265Z,27.50
2018-06-15T13:57:16.216Z,27.70
2018-06-15T13:59:45.214Z,27.70
2018-06-15T14:02:14.122Z,27.60
2018-06-15T14:04:43.124Z,27.50
2018-06-15T14:07:12.037Z,27.40
2018-06-15T14:09:41.289Z,27.50
2018-06-15T14:12:10.233Z,27.50
2018-06-15T14:14:39.151Z,27.80
2018-06-15T14:17:08.112Z,28.00
2018-06-15T14:22:05.621Z,27.60
2018-06-15T14:24:34.566Z,27.50
2018-06-15T14:27:03.575Z,27.30
2018-06-15T14:29:32.546Z,27.50
2018-06-15T14:32:01.474Z,27.90
2018-06-15T14:34:30.582Z,27.90
2018-06-15T14:36:59.503Z,28.00
2018-06-15T14:39:29.333Z,28.00
2018-06-15T14:41:58.322Z,28.00
2018-06-15T14:44:27.496Z,28.00
2018-06-15T14:46:56.430Z,28.20
2018-06-15T14:49:25.381Z,28.30
2018-06-15T14:51:54.320Z,28.40
2018-06-15T14:54:23.239Z,28.40
2018-06-15T14:56:52.177Z,28.40
2018-06-15T14:59:21.087Z,28.50
2018-06-15T15:04:25.162Z,29.00
2018-06-15T15:06:54.076Z,29.20
2018-06-15T15:09:23.077Z,29.20
2018-06-15T15:11:51.976Z,29.20
2018-06-15T15:14:20.878Z,29.00
2018-06-15T15:16:50.760Z,29.20
2018-06-15T15:19:19.692Z,29.20
2018-06-15T15:21:48.777Z,29.10
2018-06-15T15:24:17.695Z,29.20
2018-06-15T15:26:46.600Z,29.10
2018-06-15T15:31:45.441Z,28.80
2018-06-15T15:34:14.532Z,28.70
2018-06-15T15:36:43.568Z,28.80
2018-06-15T15:39:12.537Z,28.70
2018-06-15T15:41:41.453Z,28.50
2018-06-15T15:44:10.366Z,28.50
2018-06-15T15:46:39.279Z,28.30
2018-06-15T15:49:08.246Z,28.40
2018-06-15T15:51:37.174Z,28.40
2018-06-15T15:54:06.098Z,28.30
2018-06-15T15:56:35.065Z,28.50
2018-06-15T15:59:04.053Z,28.40
2018-06-15T16:01:33.291Z,28.40
2018-06-15T16:04:02.201Z,28.50
2018-06-15T16:06:31.136Z,28.40
2018-06-15T16:09:00.047Z,28.30
2018-06-15T16:11:29.173Z,28.20
2018-06-15T16:13:58.284Z,28.20
2018-06-15T16:16:27.197Z,28.20
2018-06-15T16:18:56.129Z,28.20
2018-06-15T16:21:25.041Z,28.30
2018-06-15T16:23:53.938Z,28.30
2018-06-15T16:26:22.874Z,28.20
2018-06-15T16:28:51.820Z,28.30
2018-06-15T16:31:20.730Z,28.20
2018-06-15T16:33:49.898Z,28.10
2018-06-15T16:36:18.862Z,28.10
2018-06-15T16:38:48.000Z,28.10
2018-06-15T16:41:16.932Z,28.00
2018-06-15T16:43:45.849Z,28.10
2018-06-15T16:46:14.756Z,28.20
2018-06-15T16:48:43.865Z,28.00
2018-06-15T16:53:41.397Z,27.80
2018-06-15T16:56:10.331Z,27.70
2018-06-15T16:58:39.240Z,27.40
2018-06-15T17:01:08.373Z,27.30
2018-06-15T17:03:37.280Z,27.10
2018-06-15T17:06:06.212Z,27.00
2018-06-15T17:08:35.189Z,26.90
2018-06-15T17:11:04.099Z,26.80
2018-06-15T17:13:32.977Z,26.70
2018-06-15T17:16:02.238Z,26.70
2018-06-15T17:18:31.488Z,26.50
2018-06-15T17:21:00.307Z,26.60
2018-06-15T17:23:29.266Z,26.60
2018-06-15T17:25:58.214Z,26.80
2018-06-15T17:28:27.133Z,26.80
2018-06-15T17:30:56.046Z,26.80
2018-06-15T17:33:24.986Z,26.80
2018-06-15T17:35:54.178Z,26.60
2018-06-15T17:38:23.198Z,26.40
2018-06-15T17:40:52.159Z,26.40
2018-06-15T17:43:21.176Z,26.30
2018-06-15T17:45:51.168Z,26.20
2018-06-15T17:48:20.101Z,26.10
2018-06-15T17:50:49.005Z,25.90
2018-06-15T17:53:17.990Z,26.00
2018-06-15T17:55:46.977Z,26.10
2018-06-15T17:58:15.893Z,26.20
2018-06-15T18:00:44.857Z,26.20
2018-06-15T18:03:13.760Z,26.20
2018-06-15T18:05:42.672Z,26.20
2018-06-15T18:10:46.928Z,26.20
2018-06-15T18:13:15.859Z,26.10
2018-06-15T18:15:44.826Z,26.10
2018-06-15T18:18:13.926Z,25.90
2018-06-15T18:20:43.069Z,25.80
2018-06-15T18:23:12.275Z,25.80
2018-06-15T18:25:41.223Z,25.90
2018-06-15T18:28:10.133Z,26.00
2018-06-15T18:30:39.041Z,26.10
2018-06-15T18:33:07.979Z,26.00
2018-06-15T18:35:36.890Z,26.10
2018-06-15T18:38:06.004Z,26.20
2018-06-15T18:40:34.921Z,26.20
2018-06-15T18:43:03.848Z,26.10
2018-06-15T18:45:32.953Z,26.00
2018-06-15T18:48:01.899Z,26.00
2018-06-15T18:50:30.774Z,25.70
2018-06-15T18:52:59.683Z,25.50
2018-06-15T18:55:28.580Z,25.40
2018-06-15T18:57:57.518Z,25.20
2018-06-15T19:00:26.543Z,25.00
2018-06-15T19:02:55.476Z,24.90
2018-06-15T19:05:24.492Z,24.80
2018-06-15T19:07:53.399Z,24.70
2018-06-15T19:10:22.297Z,24.60
2018-06-15T19:12:52.262Z,24.60
2018-06-15T19:15:21.213Z,24.50
2018-06-15T19:17:50.222Z,24.40
2018-06-15T19:20:19.124Z,24.30
2018-06-15T19:22:48.795Z,24.20
2018-06-15T19:25:17.724Z,24.00
2018-06-15T19:27:46.712Z,23.90
2018-06-15T19:30:16.173Z,23.80
2018-06-15T19:32:45.083Z,23.60
2018-06-15T19:35:14.010Z,23.50
2018-06-15T19:37:43.293Z,23.30
2018-06-15T19:40:12.249Z,23.10
2018-06-15T19:42:41.279Z,23.00
2018-06-15T19:45:10.253Z,22.80
2018-06-15T19:47:39.152Z,22.60
2018-06-15T19:50:08.129Z,22.30
2018-06-15T19:52:37.049Z,22.00
2018-06-15T19:55:06.040Z,21.80
2018-06-15T19:57:34.953Z,21.60
2018-06-15T20:00:03.933Z,21.40
2018-06-15T20:02:32.867Z,21.20
2018-06-15T20:05:02.491Z,21.10
2018-06-15T20:07:31.412Z,20.90
2018-06-15T20:10:00.321Z,20.70
2018-06-15T20:12:29.260Z,20.60
2018-06-15T20:14:58.177Z,20.40
2018-06-15T20:17:27.072Z,20.20
2018-06-15T20:19:56.012Z,20.10
2018-06-15T20:22:24.928Z,20.00
2018-06-15T20:24:53.926Z,19.80
2018-06-15T20:27:22.836Z,19.70
2018-06-15T20:29:51.757Z,19.60
2018-06-15T20:32:20.709Z,19.40
2018-06-15T20:34:49.708Z,19.30
2018-06-15T20:37:18.681Z,19.20
2018-06-15T20:39:47.626Z,19.00
2018-06-15T20:42:16.552Z,18.90
2018-06-15T20:44:45.612Z,18.80
2018-06-15T20:47:14.526Z,18.70
2018-06-15T20:49:43.452Z,18.60
2018-06-15T20:52:12.384Z,18.50
2018-06-15T20:54:41.339Z,18.40
2018-06-15T20:57:10.256Z,18.30
2018-06-15T20:59:39.187Z,18.20
2018-06-15T21:02:08.170Z,18.20
2018-06-15T21:04:37.097Z,18.10
2018-06-15T21:07:06.055Z,18.00
2018-06-15T21:09:34.955Z,17.90
2018-06-15T21:12:03.873Z,17.90
2018-06-15T21:14:32.941Z,17.70
2018-06-15T21:17:01.843Z,17.60
2018-06-15T21:19:30.747Z,17.60
2018-06-15T21:21:59.849Z,17.50
2018-06-15T21:24:28.801Z,17.40
2018-06-15T21:26:57.683Z,17.40
2018-06-15T21:29:26.617Z,17.30
2018-06-15T21:31:55.793Z,17.20
2018-06-15T21:34:24.988Z,17.10
2018-06-15T21:36:54.207Z,17.10
2018-06-15T21:39:23.340Z,17.00
2018-06-15T21:41:52.275Z,16.90
2018-06-15T21:44:22.539Z,16.90
2018-06-15T21:46:51.601Z,16.80
2018-06-15T21:49:20.560Z,16.80
2018-06-15T21:51:49.675Z,16.80
2018-06-15T21:54:18.952Z,16.70
2018-06-15T21:56:47.881Z,16.60
2018-06-15T21:59:17.029Z,16.50
2018-06-15T22:01:45.989Z,16.40
2018-06-15T22:04:14.933Z,16.30
2018-06-15T22:06:43.884Z,16.30
2018-06-15T22:09:13.134Z,16.20
2018-06-15T22:11:42.158Z,16.10
2018-06-15T22:14:11.226Z,16.00
2018-06-15T22:16:45.534Z,15.90
2018-06-15T22:19:14.486Z,15.90
2018-06-15T22:21:43.897Z,15.80
2018-06-15T22:24:12.842Z,15.80
2018-06-15T22:29:10.482Z,15.70
2018-06-15T22:31:39.693Z,15.70
2018-06-15T22:34:08.630Z,15.60
2018-06-15T22:36:37.585Z,15.60
2018-06-15T22:39:09.825Z,15.50
2018-06-15T22:41:38.737Z,15.50
2018-06-15T22:44:07.984Z,15.50
2018-06-15T22:46:36.912Z,15.50
2018-06-15T22:49:05.846Z,15.40
2018-06-15T22:51:34.876Z,15.30
2018-06-15T22:54:04.073Z,15.30
2018-06-15T22:56:33.281Z,15.20
2018-06-15T22:59:02.372Z,15.20
2018-06-15T23:01:31.750Z,15.10
2018-06-15T23:04:01.257Z,15.10
2018-06-15T23:06:30.284Z,15.10
2018-06-15T23:08:59.217Z,15.10
2018-06-15T23:11:28.214Z,15.00
2018-06-15T23:13:57.166Z,15.00
2018-06-15T23:16:26.077Z,15.00
2018-06-15T23:18:54.973Z,14.90
2018-06-15T23:21:23.883Z,14.90
2018-06-15T23:23:52.797Z,14.90
2018-06-15T23:26:21.725Z,14.90
2018-06-15T23:28:50.640Z,14.80
2018-06-15T23:31:19.600Z,14.90
2018-06-15T23:33:48.523Z,14.80
2018-06-15T23:36:17.513Z,14.80
2018-06-15T23:38:46.446Z,14.80
2018-06-15T23:41:15.372Z,14.80
2018-06-15T23:43:44.415Z,14.80
2018-06-15T23:46:13.641Z,14.70
2018-06-15T23:48:42.588Z,14.70
2018-06-15T23:51:11.552Z,14.70
2018-06-15T23:53:40.504Z,14.60
2018-06-15T23:58:38.061Z,14.50
